NKS250 KCLE-KEWR
Flight info
| Callsign | NKS250 |
|---|---|
| Flight time | N/A |
| Altitude | 35000 |
| Route | PFLYD1 DORET J584 SLT FQM3 |
| Aircraft | A320/M-SDE3FGHIRWY/LB1 |
Departure
| Time | 2026-05-05 00:08 |
|---|---|
| Airport | Cleveland Hopkins International Airport (KCLE) |
Arrival
| Time | N/A |
|---|---|
| Airport | Newark Liberty International Airport (KEWR) |
| Time | Latitude | Longitude | Altitude | Speed | Heading |
|---|---|---|---|---|---|
| 2026-05-04 23:46 | 41.40922 | -81.84067 | 795 ft | 0 kts | 140° |
| 2026-05-04 23:59 | 41.40926 | -81.84071 | 795 ft | 2 kts | 140° |
| 2026-05-05 00:00 | 41.40940 | -81.84087 | 794 ft | 3 kts | 140° |
| 2026-05-05 00:00 | 41.40945 | -81.84092 | 794 ft | 2 kts | 140° |
| 2026-05-05 00:00 | 41.40957 | -81.84106 | 795 ft | 0 kts | 128° |
| 2026-05-05 00:00 | 41.40960 | -81.84111 | 795 ft | 2 kts | 128° |
| 2026-05-05 00:01 | 41.40971 | -81.84129 | 795 ft | 2 kts | 126° |
| 2026-05-05 00:01 | 41.40981 | -81.84148 | 795 ft | 3 kts | 126° |
| 2026-05-05 00:01 | 41.40991 | -81.84167 | 794 ft | 3 kts | 126° |
| 2026-05-05 00:01 | 41.41002 | -81.84185 | 794 ft | 2 kts | 128° |
| 2026-05-05 00:02 | 41.41012 | -81.84203 | 794 ft | 2 kts | 126° |
| 2026-05-05 00:02 | 41.41022 | -81.84221 | 794 ft | 2 kts | 125° |
| 2026-05-05 00:02 | 41.41031 | -81.84239 | 794 ft | 2 kts | 125° |
| 2026-05-05 00:02 | 41.41041 | -81.84258 | 794 ft | 3 kts | 135° |
| 2026-05-05 00:03 | 41.41055 | -81.84271 | 794 ft | 2 kts | 160° |
| 2026-05-05 00:03 | 41.41054 | -81.84271 | 794 ft | 4 kts | 167° |
| 2026-05-05 00:03 | 41.41021 | -81.84305 | 794 ft | 6 kts | 220° |
| 2026-05-05 00:03 | 41.41006 | -81.84333 | 795 ft | 0 kts | 275° |
| 2026-05-05 00:04 | 41.41007 | -81.84334 | 795 ft | 0 kts | 285° |
| 2026-05-05 00:04 | 41.41008 | -81.84335 | 795 ft | 0 kts | 292° |
| 2026-05-05 00:04 | 41.41026 | -81.84334 | 795 ft | 0 kts | 359° |
| 2026-05-05 00:04 | 41.41030 | -81.84334 | 795 ft | 0 kts | 359° |
| 2026-05-05 00:05 | 41.41037 | -81.84334 | 795 ft | 6 kts | 358° |
| 2026-05-05 00:05 | 41.41118 | -81.84377 | 794 ft | 19 kts | 352° |
| 2026-05-05 00:05 | 41.41245 | -81.84379 | 792 ft | 14 kts | 6° |
| 2026-05-05 00:06 | 41.41321 | -81.84303 | 792 ft | 14 kts | 44° |
| 2026-05-05 00:06 | 41.41385 | -81.84209 | 792 ft | 7 kts | 49° |
| 2026-05-05 00:06 | 41.41420 | -81.84163 | 793 ft | 7 kts | 38° |
| 2026-05-05 00:06 | 41.41442 | -81.84153 | 793 ft | 0 kts | 13° |
| 2026-05-05 00:07 | 41.41449 | -81.84153 | 793 ft | 5 kts | 2° |
| 2026-05-05 00:07 | 41.41495 | -81.84250 | 792 ft | 19 kts | 257° |
| 2026-05-05 00:07 | 41.41274 | -81.84618 | 791 ft | 87 kts | 230° |
| 2026-05-05 00:08 | 41.40757 | -81.85423 | 792 ft | 138 kts | 226° |
| 2026-05-05 00:08 | 41.40148 | -81.86446 | 1284 ft | 143 kts | 229° |
| 2026-05-05 00:08 | 41.39501 | -81.87601 | 1658 ft | 169 kts | 236° |
| 2026-05-05 00:08 | 41.39033 | -81.89093 | 2153 ft | 189 kts | 251° |
| 2026-05-05 00:09 | 41.38922 | -81.90957 | 2496 ft | 215 kts | 271° |
| 2026-05-05 00:09 | 41.39178 | -81.93004 | 2920 ft | 234 kts | 273° |
| 2026-05-05 00:09 | 41.39464 | -81.95215 | 3389 ft | 251 kts | 274° |
| 2026-05-05 00:09 | 41.39770 | -81.97581 | 3873 ft | 268 kts | 274° |
| 2026-05-05 00:10 | 41.40096 | -82.00082 | 4382 ft | 279 kts | 274° |
| 2026-05-05 00:10 | 41.40429 | -82.02646 | 4943 ft | 282 kts | 275° |
| 2026-05-05 00:10 | 41.40764 | -82.05225 | 5539 ft | 283 kts | 275° |
| 2026-05-05 00:10 | 41.41099 | -82.07818 | 6124 ft | 285 kts | 276° |
| 2026-05-05 00:11 | 41.41677 | -82.10352 | 6671 ft | 294 kts | 296° |
| 2026-05-05 00:11 | 41.43170 | -82.12279 | 7248 ft | 312 kts | 325° |
| 2026-05-05 00:11 | 41.45325 | -82.13008 | 7820 ft | 333 kts | 354° |
| 2026-05-05 00:11 | 41.47623 | -82.12263 | 8405 ft | 352 kts | 22° |
| 2026-05-05 00:12 | 41.49587 | -82.10233 | 9009 ft | 363 kts | 42° |
| 2026-05-05 00:12 | 41.51249 | -82.07667 | 9599 ft | 367 kts | 47° |
| 2026-05-05 00:12 | 41.52874 | -82.05029 | 10146 ft | 369 kts | 47° |
| 2026-05-05 00:12 | 41.54506 | -82.02378 | 10708 ft | 371 kts | 47° |
| 2026-05-05 00:13 | 41.56244 | -81.99834 | 11272 ft | 370 kts | 40° |
| 2026-05-05 00:13 | 41.58144 | -81.97513 | 11860 ft | 371 kts | 36° |
| 2026-05-05 00:13 | 41.60139 | -81.95324 | 12451 ft | 372 kts | 34° |
| 2026-05-05 00:13 | 41.61952 | -81.92826 | 13041 ft | 382 kts | 55° |
| 2026-05-05 00:14 | 41.63018 | -81.89554 | 13640 ft | 387 kts | 73° |
| 2026-05-05 00:14 | 41.63490 | -81.86003 | 14190 ft | 389 kts | 85° |
| 2026-05-05 00:14 | 41.63598 | -81.82376 | 14747 ft | 390 kts | 90° |
| 2026-05-05 00:14 | 41.63561 | -81.78747 | 15308 ft | 391 kts | 91° |
| 2026-05-05 00:15 | 41.63531 | -81.75116 | 15889 ft | 391 kts | 90° |
| 2026-05-05 00:15 | 41.63575 | -81.71478 | 16477 ft | 391 kts | 88° |
| 2026-05-05 00:15 | 41.63704 | -81.67852 | 17074 ft | 391 kts | 86° |
| 2026-05-05 00:15 | 41.63896 | -81.64227 | 17684 ft | 390 kts | 85° |
| 2026-05-05 00:16 | 41.64119 | -81.60608 | 18283 ft | 390 kts | 85° |
| 2026-05-05 00:16 | 41.64348 | -81.56997 | 18838 ft | 389 kts | 85° |
| 2026-05-05 00:16 | 41.64595 | -81.53403 | 19384 ft | 388 kts | 80° |
| 2026-05-05 00:16 | 41.65260 | -81.49925 | 19950 ft | 385 kts | 71° |
| 2026-05-05 00:17 | 41.66034 | -81.46559 | 20489 ft | 383 kts | 71° |
| 2026-05-05 00:17 | 41.66822 | -81.43138 | 20834 ft | 388 kts | 71° |
| 2026-05-05 00:17 | 41.67626 | -81.39654 | 21091 ft | 395 kts | 71° |
| 2026-05-05 00:17 | 41.68443 | -81.36107 | 21356 ft | 402 kts | 71° |
| 2026-05-05 00:18 | 41.69275 | -81.32502 | 21622 ft | 409 kts | 71° |
| 2026-05-05 00:18 | 41.70117 | -81.28839 | 21888 ft | 416 kts | 71° |
| 2026-05-05 00:18 | 41.70972 | -81.25113 | 22271 ft | 418 kts | 71° |
| 2026-05-05 00:18 | 41.71819 | -81.21401 | 22897 ft | 416 kts | 71° |
| 2026-05-05 00:19 | 41.72658 | -81.17713 | 23483 ft | 413 kts | 71° |
| 2026-05-05 00:19 | 41.73488 | -81.14057 | 24019 ft | 409 kts | 71° |
| 2026-05-05 00:19 | 41.74309 | -81.10426 | 24562 ft | 405 kts | 71° |
| 2026-05-05 00:19 | 41.75121 | -81.06840 | 25123 ft | 400 kts | 71° |
| 2026-05-05 00:20 | 41.75926 | -81.03299 | 25693 ft | 394 kts | 71° |
| 2026-05-05 00:20 | 41.76705 | -80.99809 | 26268 ft | 388 kts | 75° |
| 2026-05-05 00:20 | 41.77251 | -80.96304 | 26862 ft | 380 kts | 79° |
| 2026-05-05 00:20 | 41.77626 | -80.92783 | 27039 ft | 387 kts | 83° |
| 2026-05-05 00:21 | 41.77901 | -80.89155 | 27049 ft | 397 kts | 84° |
| 2026-05-05 00:21 | 41.78138 | -80.85417 | 27063 ft | 407 kts | 85° |
| 2026-05-05 00:21 | 41.78374 | -80.81671 | 27601 ft | 400 kts | 84° |
| 2026-05-05 00:21 | 41.78624 | -80.77989 | 28185 ft | 393 kts | 84° |
| 2026-05-05 00:22 | 41.78890 | -80.74367 | 28626 ft | 391 kts | 83° |
| 2026-05-05 00:22 | 41.79480 | -80.66974 | 28731 ft | 408 kts | 83° |
| 2026-05-05 00:23 | 41.80075 | -80.59223 | 28730 ft | 428 kts | 89° |
| 2026-05-05 00:23 | 41.79455 | -80.51172 | 28735 ft | 447 kts | 98° |
| 2026-05-05 00:24 | 41.78608 | -80.42759 | 28738 ft | 461 kts | 98° |
| 2026-05-05 00:24 | 41.77745 | -80.34215 | 28765 ft | 463 kts | 98° |